sensor_id;sensor_type;location;lat;lon;timestamp;P1;durP1;ratioP1;P2;durP2;ratioP2
57651;SDS011;43480;53.116;6.734;2023-04-25T00:00:11;17.33;;;5.75;;
57651;SDS011;43480;53.116;6.734;2023-04-25T00:02:37;20.30;;;5.75;;
57651;SDS011;43480;53.116;6.734;2023-04-25T00:05:02;17.52;;;5.80;;
57651;SDS011;43480;53.116;6.734;2023-04-25T00:07:29;18.67;;;5.70;;
57651;SDS011;43480;53.116;6.734;2023-04-25T00:09:56;23.45;;;6.32;;
57651;SDS011;43480;53.116;6.734;2023-04-25T00:12:21;17.35;;;6.38;;
57651;SDS011;43480;53.116;6.734;2023-04-25T00:14:48;20.80;;;5.75;;
57651;SDS011;43480;53.116;6.734;2023-04-25T00:17:15;17.05;;;5.68;;
57651;SDS011;43480;53.116;6.734;2023-04-25T00:19:42;22.90;;;6.47;;
57651;SDS011;43480;53.116;6.734;2023-04-25T00:22:09;18.17;;;4.90;;
57651;SDS011;43480;53.116;6.734;2023-04-25T00:24:35;18.25;;;5.25;;
57651;SDS011;43480;53.116;6.734;2023-04-25T00:27:01;18.38;;;5.35;;
57651;SDS011;43480;53.116;6.734;2023-04-25T00:29:26;19.95;;;5.60;;
57651;SDS011;43480;53.116;6.734;2023-04-25T00:31:52;15.35;;;5.25;;
57651;SDS011;43480;53.116;6.734;2023-04-25T00:34:18;24.52;;;6.10;;
57651;SDS011;43480;53.116;6.734;2023-04-25T00:36:43;14.93;;;5.18;;
57651;SDS011;43480;53.116;6.734;2023-04-25T00:39:09;19.05;;;5.70;;
57651;SDS011;43480;53.116;6.734;2023-04-25T00:41:36;26.50;;;6.05;;
57651;SDS011;43480;53.116;6.734;2023-04-25T00:44:03;23.95;;;6.00;;
57651;SDS011;43480;53.116;6.734;2023-04-25T00:46:30;18.33;;;5.75;;
57651;SDS011;43480;53.116;6.734;2023-04-25T00:48:56;18.60;;;5.40;;
57651;SDS011;43480;53.116;6.734;2023-04-25T00:51:22;17.25;;;5.30;;
57651;SDS011;43480;53.116;6.734;2023-04-25T00:53:48;16.55;;;5.10;;
57651;SDS011;43480;53.116;6.734;2023-04-25T00:56:15;14.80;;;4.22;;
57651;SDS011;43480;53.116;6.734;2023-04-25T00:58:41;17.38;;;5.05;;
57651;SDS011;43480;53.116;6.734;2023-04-25T01:01:08;17.65;;;4.97;;
57651;SDS011;43480;53.116;6.734;2023-04-25T01:03:35;15.85;;;3.47;;
57651;SDS011;43480;53.116;6.734;2023-04-25T01:06:06;15.18;;;4.32;;
57651;SDS011;43480;53.116;6.734;2023-04-25T01:08:33;13.82;;;3.67;;
57651;SDS011;43480;53.116;6.734;2023-04-25T01:10:59;11.20;;;4.45;;
57651;SDS011;43480;53.116;6.734;2023-04-25T01:13:25;19.73;;;5.35;;
57651;SDS011;43480;53.116;6.734;2023-04-25T01:15:50;13.63;;;3.45;;
57651;SDS011;43480;53.116;6.734;2023-04-25T01:18:16;11.82;;;4.22;;
57651;SDS011;43480;53.116;6.734;2023-04-25T01:20:42;19.15;;;5.07;;
57651;SDS011;43480;53.116;6.734;2023-04-25T01:23:08;14.95;;;4.13;;
57651;SDS011;43480;53.116;6.734;2023-04-25T01:25:34;14.00;;;3.38;;
57651;SDS011;43480;53.116;6.734;2023-04-25T01:28:00;13.70;;;3.63;;
57651;SDS011;43480;53.116;6.734;2023-04-25T01:30:26;14.57;;;3.40;;
57651;SDS011;43480;53.116;6.734;2023-04-25T01:32:53;16.08;;;3.38;;
57651;SDS011;43480;53.116;6.734;2023-04-25T01:35:20;13.27;;;3.42;;
57651;SDS011;43480;53.116;6.734;2023-04-25T01:37:48;13.75;;;5.03;;
57651;SDS011;43480;53.116;6.734;2023-04-25T01:40:14;10.18;;;3.42;;
57651;SDS011;43480;53.116;6.734;2023-04-25T01:42:41;13.75;;;2.88;;
57651;SDS011;43480;53.116;6.734;2023-04-25T01:45:08;14.27;;;2.70;;
57651;SDS011;43480;53.116;6.734;2023-04-25T01:47:35;14.18;;;4.03;;
57651;SDS011;43480;53.116;6.734;2023-04-25T01:50:02;15.70;;;3.17;;
57651;SDS011;43480;53.116;6.734;2023-04-25T01:52:29;11.70;;;2.83;;
57651;SDS011;43480;53.116;6.734;2023-04-25T01:54:56;16.40;;;3.80;;
57651;SDS011;43480;53.116;6.734;2023-04-25T01:57:22;11.07;;;3.33;;
57651;SDS011;43480;53.116;6.734;2023-04-25T01:59:48;16.52;;;3.70;;
57651;SDS011;43480;53.116;6.734;2023-04-25T02:02:15;14.55;;;4.25;;
57651;SDS011;43480;53.116;6.734;2023-04-25T02:04:40;13.45;;;3.40;;
57651;SDS011;43480;53.116;6.734;2023-04-25T02:07:06;10.30;;;3.45;;
57651;SDS011;43480;53.116;6.734;2023-04-25T02:09:31;11.70;;;2.90;;
57651;SDS011;43480;53.116;6.734;2023-04-25T02:11:57;15.38;;;3.15;;
57651;SDS011;43480;53.116;6.734;2023-04-25T02:14:23;23.15;;;4.50;;
57651;SDS011;43480;53.116;6.734;2023-04-25T02:16:49;13.07;;;3.30;;
57651;SDS011;43480;53.116;6.734;2023-04-25T02:19:16;14.25;;;3.55;;
57651;SDS011;43480;53.116;6.734;2023-04-25T02:21:41;13.55;;;3.22;;
57651;SDS011;43480;53.116;6.734;2023-04-25T02:24:07;13.30;;;2.88;;
57651;SDS011;43480;53.116;6.734;2023-04-25T02:26:33;14.75;;;2.88;;
57651;SDS011;43480;53.116;6.734;2023-04-25T02:28:58;19.33;;;3.03;;
57651;SDS011;43480;53.116;6.734;2023-04-25T02:31:24;16.48;;;3.80;;
57651;SDS011;43480;53.116;6.734;2023-04-25T02:33:51;18.83;;;4.15;;
57651;SDS011;43480;53.116;6.734;2023-04-25T02:36:16;12.25;;;3.25;;
57651;SDS011;43480;53.116;6.734;2023-04-25T02:38:42;17.50;;;4.15;;
57651;SDS011;43480;53.116;6.734;2023-04-25T02:41:08;18.30;;;3.95;;
57651;SDS011;43480;53.116;6.734;2023-04-25T02:43:33;24.33;;;3.35;;
57651;SDS011;43480;53.116;6.734;2023-04-25T02:45:59;16.30;;;4.15;;
57651;SDS011;43480;53.116;6.734;2023-04-25T02:48:24;15.07;;;3.83;;
57651;SDS011;43480;53.116;6.734;2023-04-25T02:50:50;21.35;;;3.88;;
57651;SDS011;43480;53.116;6.734;2023-04-25T02:53:16;14.68;;;3.30;;
57651;SDS011;43480;53.116;6.734;2023-04-25T02:55:41;21.58;;;4.20;;
57651;SDS011;43480;53.116;6.734;2023-04-25T02:58:07;14.27;;;3.60;;
57651;SDS011;43480;53.116;6.734;2023-04-25T03:00:33;15.43;;;3.92;;
57651;SDS011;43480;53.116;6.734;2023-04-25T03:02:58;9.82;;;3.13;;
57651;SDS011;43480;53.116;6.734;2023-04-25T03:05:24;9.68;;;3.95;;
57651;SDS011;43480;53.116;6.734;2023-04-25T03:07:49;15.35;;;3.42;;
57651;SDS011;43480;53.116;6.734;2023-04-25T03:10:15;13.00;;;3.15;;
57651;SDS011;43480;53.116;6.734;2023-04-25T03:12:40;13.98;;;3.58;;
57651;SDS011;43480;53.116;6.734;2023-04-25T03:15:06;9.70;;;2.63;;
57651;SDS011;43480;53.116;6.734;2023-04-25T03:17:32;22.55;;;4.35;;
57651;SDS011;43480;53.116;6.734;2023-04-25T03:19:58;10.70;;;2.63;;
57651;SDS011;43480;53.116;6.734;2023-04-25T03:22:24;13.77;;;3.10;;
57651;SDS011;43480;53.116;6.734;2023-04-25T03:24:49;11.95;;;2.70;;
57651;SDS011;43480;53.116;6.734;2023-04-25T03:27:15;22.27;;;3.45;;
57651;SDS011;43480;53.116;6.734;2023-04-25T03:29:41;13.05;;;2.28;;
57651;SDS011;43480;53.116;6.734;2023-04-25T03:32:07;17.73;;;3.65;;
57651;SDS011;43480;53.116;6.734;2023-04-25T03:34:32;12.98;;;2.88;;
57651;SDS011;43480;53.116;6.734;2023-04-25T03:36:58;11.93;;;2.92;;
57651;SDS011;43480;53.116;6.734;2023-04-25T03:39:25;14.35;;;3.33;;
57651;SDS011;43480;53.116;6.734;2023-04-25T03:41:50;5.50;;;2.53;;
57651;SDS011;43480;53.116;6.734;2023-04-25T03:44:16;12.75;;;2.90;;
57651;SDS011;43480;53.116;6.734;2023-04-25T03:46:42;13.95;;;2.90;;
57651;SDS011;43480;53.116;6.734;2023-04-25T03:49:07;12.27;;;3.10;;
57651;SDS011;43480;53.116;6.734;2023-04-25T03:51:33;12.38;;;2.78;;
57651;SDS011;43480;53.116;6.734;2023-04-25T03:53:58;11.68;;;3.15;;
57651;SDS011;43480;53.116;6.734;2023-04-25T03:56:24;11.48;;;2.92;;
57651;SDS011;43480;53.116;6.734;2023-04-25T03:58:50;15.93;;;3.35;;
57651;SDS011;43480;53.116;6.734;2023-04-25T04:01:15;14.55;;;3.03;;
57651;SDS011;43480;53.116;6.734;2023-04-25T04:03:41;14.27;;;3.22;;
57651;SDS011;43480;53.116;6.734;2023-04-25T04:06:07;13.45;;;3.40;;
57651;SDS011;43480;53.116;6.734;2023-04-25T04:08:33;17.15;;;3.03;;
57651;SDS011;43480;53.116;6.734;2023-04-25T04:11:00;12.70;;;3.08;;
57651;SDS011;43480;53.116;6.734;2023-04-25T04:13:28;19.35;;;3.40;;
57651;SDS011;43480;53.116;6.734;2023-04-25T04:15:55;15.82;;;2.75;;
57651;SDS011;43480;53.116;6.734;2023-04-25T04:18:20;9.80;;;2.50;;
57651;SDS011;43480;53.116;6.734;2023-04-25T04:20:46;14.75;;;2.58;;
57651;SDS011;43480;53.116;6.734;2023-04-25T04:23:12;10.30;;;2.65;;
57651;SDS011;43480;53.116;6.734;2023-04-25T04:25:38;12.32;;;2.42;;
57651;SDS011;43480;53.116;6.734;2023-04-25T04:28:05;13.32;;;3.78;;
57651;SDS011;43480;53.116;6.734;2023-04-25T04:30:32;16.63;;;2.88;;
57651;SDS011;43480;53.116;6.734;2023-04-25T04:33:01;11.82;;;2.83;;
57651;SDS011;43480;53.116;6.734;2023-04-25T04:35:27;11.20;;;2.92;;
57651;SDS011;43480;53.116;6.734;2023-04-25T04:37:53;13.25;;;2.50;;
57651;SDS011;43480;53.116;6.734;2023-04-25T04:40:20;12.35;;;3.22;;
57651;SDS011;43480;53.116;6.734;2023-04-25T04:42:47;14.85;;;4.43;;
57651;SDS011;43480;53.116;6.734;2023-04-25T04:45:13;15.93;;;2.83;;
57651;SDS011;43480;53.116;6.734;2023-04-25T04:47:39;19.02;;;4.80;;
57651;SDS011;43480;53.116;6.734;2023-04-25T04:50:08;14.50;;;3.13;;
57651;SDS011;43480;53.116;6.734;2023-04-25T04:52:35;11.63;;;2.88;;
57651;SDS011;43480;53.116;6.734;2023-04-25T04:55:02;12.32;;;3.35;;
57651;SDS011;43480;53.116;6.734;2023-04-25T04:57:28;10.35;;;2.65;;
57651;SDS011;43480;53.116;6.734;2023-04-25T04:59:54;10.65;;;3.33;;
57651;SDS011;43480;53.116;6.734;2023-04-25T05:02:20;11.05;;;2.25;;
57651;SDS011;43480;53.116;6.734;2023-04-25T05:04:46;8.52;;;2.17;;
57651;SDS011;43480;53.116;6.734;2023-04-25T05:07:11;12.88;;;2.30;;
57651;SDS011;43480;53.116;6.734;2023-04-25T05:09:37;10.57;;;2.50;;
57651;SDS011;43480;53.116;6.734;2023-04-25T05:12:03;10.60;;;1.95;;
57651;SDS011;43480;53.116;6.734;2023-04-25T05:14:30;8.45;;;2.33;;
57651;SDS011;43480;53.116;6.734;2023-04-25T05:16:55;10.07;;;2.97;;
57651;SDS011;43480;53.116;6.734;2023-04-25T05:19:21;12.98;;;5.10;;
57651;SDS011;43480;53.116;6.734;2023-04-25T05:21:46;10.82;;;2.42;;
57651;SDS011;43480;53.116;6.734;2023-04-25T05:24:12;12.90;;;2.83;;
57651;SDS011;43480;53.116;6.734;2023-04-25T05:26:38;10.07;;;2.72;;
57651;SDS011;43480;53.116;6.734;2023-04-25T05:29:03;8.90;;;2.38;;
57651;SDS011;43480;53.116;6.734;2023-04-25T05:31:30;5.60;;;1.70;;
57651;SDS011;43480;53.116;6.734;2023-04-25T05:33:56;10.43;;;2.95;;
57651;SDS011;43480;53.116;6.734;2023-04-25T05:36:22;12.30;;;2.72;;
57651;SDS011;43480;53.116;6.734;2023-04-25T05:38:48;8.68;;;1.77;;
57651;SDS011;43480;53.116;6.734;2023-04-25T05:41:13;7.80;;;1.67;;
57651;SDS011;43480;53.116;6.734;2023-04-25T05:43:39;7.25;;;1.83;;
57651;SDS011;43480;53.116;6.734;2023-04-25T05:46:10;9.02;;;2.00;;
57651;SDS011;43480;53.116;6.734;2023-04-25T05:48:36;7.75;;;1.75;;
57651;SDS011;43480;53.116;6.734;2023-04-25T05:51:02;8.65;;;2.55;;
57651;SDS011;43480;53.116;6.734;2023-04-25T05:53:28;8.35;;;2.15;;
57651;SDS011;43480;53.116;6.734;2023-04-25T05:55:53;9.98;;;3.63;;
57651;SDS011;43480;53.116;6.734;2023-04-25T05:58:19;8.43;;;3.03;;
57651;SDS011;43480;53.116;6.734;2023-04-25T06:00:45;9.48;;;2.00;;
57651;SDS011;43480;53.116;6.734;2023-04-25T06:03:11;9.23;;;2.97;;
57651;SDS011;43480;53.116;6.734;2023-04-25T06:05:39;11.65;;;2.65;;
57651;SDS011;43480;53.116;6.734;2023-04-25T06:08:09;11.00;;;2.30;;
57651;SDS011;43480;53.116;6.734;2023-04-25T06:10:35;7.30;;;2.63;;
57651;SDS011;43480;53.116;6.734;2023-04-25T06:13:01;9.48;;;2.30;;
57651;SDS011;43480;53.116;6.734;2023-04-25T06:15:27;10.73;;;2.58;;
57651;SDS011;43480;53.116;6.734;2023-04-25T06:17:54;11.45;;;3.58;;
57651;SDS011;43480;53.116;6.734;2023-04-25T06:20:20;11.27;;;3.38;;
57651;SDS011;43480;53.116;6.734;2023-04-25T06:22:48;12.07;;;2.53;;
57651;SDS011;43480;53.116;6.734;2023-04-25T06:25:15;6.43;;;2.03;;
57651;SDS011;43480;53.116;6.734;2023-04-25T06:27:41;12.35;;;2.47;;
57651;SDS011;43480;53.116;6.734;2023-04-25T06:30:06;9.60;;;1.90;;
57651;SDS011;43480;53.116;6.734;2023-04-25T06:32:32;7.97;;;1.55;;
57651;SDS011;43480;53.116;6.734;2023-04-25T06:34:59;9.85;;;2.08;;
57651;SDS011;43480;53.116;6.734;2023-04-25T06:37:25;15.77;;;2.55;;
57651;SDS011;43480;53.116;6.734;2023-04-25T06:39:51;9.23;;;2.33;;
57651;SDS011;43480;53.116;6.734;2023-04-25T06:42:16;5.72;;;2.17;;
57651;SDS011;43480;53.116;6.734;2023-04-25T06:44:42;9.18;;;2.47;;
57651;SDS011;43480;53.116;6.734;2023-04-25T06:47:08;9.88;;;2.03;;
57651;SDS011;43480;53.116;6.734;2023-04-25T06:49:33;9.40;;;2.35;;
57651;SDS011;43480;53.116;6.734;2023-04-25T06:51:59;8.98;;;2.50;;
57651;SDS011;43480;53.116;6.734;2023-04-25T06:54:25;9.85;;;2.10;;
57651;SDS011;43480;53.116;6.734;2023-04-25T06:56:52;9.10;;;2.95;;
57651;SDS011;43480;53.116;6.734;2023-04-25T06:59:20;12.38;;;2.20;;
57651;SDS011;43480;53.116;6.734;2023-04-25T07:01:46;9.73;;;2.92;;
57651;SDS011;43480;53.116;6.734;2023-04-25T07:04:11;9.32;;;1.90;;
57651;SDS011;43480;53.116;6.734;2023-04-25T07:06:37;17.80;;;3.65;;
57651;SDS011;43480;53.116;6.734;2023-04-25T07:09:07;11.50;;;3.20;;
57651;SDS011;43480;53.116;6.734;2023-04-25T07:11:34;14.98;;;2.38;;
57651;SDS011;43480;53.116;6.734;2023-04-25T07:14:00;12.45;;;2.50;;
57651;SDS011;43480;53.116;6.734;2023-04-25T07:16:27;8.73;;;2.20;;
57651;SDS011;43480;53.116;6.734;2023-04-25T07:18:52;9.15;;;1.98;;
57651;SDS011;43480;53.116;6.734;2023-04-25T07:21:18;8.98;;;2.00;;
57651;SDS011;43480;53.116;6.734;2023-04-25T07:23:44;10.73;;;3.15;;
57651;SDS011;43480;53.116;6.734;2023-04-25T07:26:09;14.23;;;2.22;;
57651;SDS011;43480;53.116;6.734;2023-04-25T07:28:35;8.45;;;1.90;;
57651;SDS011;43480;53.116;6.734;2023-04-25T07:31:01;5.93;;;1.77;;
57651;SDS011;43480;53.116;6.734;2023-04-25T07:33:27;6.90;;;1.65;;
57651;SDS011;43480;53.116;6.734;2023-04-25T07:35:53;10.02;;;2.00;;
57651;SDS011;43480;53.116;6.734;2023-04-25T07:38:19;8.98;;;1.52;;
57651;SDS011;43480;53.116;6.734;2023-04-25T07:40:44;5.47;;;1.42;;
57651;SDS011;43480;53.116;6.734;2023-04-25T07:43:10;8.05;;;1.67;;
57651;SDS011;43480;53.116;6.734;2023-04-25T07:45:39;7.85;;;1.70;;
57651;SDS011;43480;53.116;6.734;2023-04-25T07:48:04;8.43;;;1.88;;
57651;SDS011;43480;53.116;6.734;2023-04-25T07:50:30;12.73;;;3.17;;
57651;SDS011;43480;53.116;6.734;2023-04-25T07:52:56;9.02;;;1.45;;
57651;SDS011;43480;53.116;6.734;2023-04-25T07:55:21;4.57;;;1.33;;
57651;SDS011;43480;53.116;6.734;2023-04-25T07:57:47;6.50;;;1.35;;
57651;SDS011;43480;53.116;6.734;2023-04-25T08:00:13;11.82;;;2.13;;
57651;SDS011;43480;53.116;6.734;2023-04-25T08:02:40;5.70;;;1.40;;
57651;SDS011;43480;53.116;6.734;2023-04-25T08:05:05;11.65;;;1.67;;
57651;SDS011;43480;53.116;6.734;2023-04-25T08:07:33;5.95;;;1.40;;
57651;SDS011;43480;53.116;6.734;2023-04-25T08:10:00;10.90;;;1.95;;
57651;SDS011;43480;53.116;6.734;2023-04-25T08:12:25;10.77;;;2.22;;
57651;SDS011;43480;53.116;6.734;2023-04-25T08:14:51;5.68;;;1.45;;
57651;SDS011;43480;53.116;6.734;2023-04-25T08:17:16;10.65;;;1.85;;
57651;SDS011;43480;53.116;6.734;2023-04-25T08:19:42;5.32;;;1.38;;
57651;SDS011;43480;53.116;6.734;2023-04-25T08:22:08;7.82;;;1.67;;
57651;SDS011;43480;53.116;6.734;2023-04-25T08:24:33;7.28;;;1.95;;
57651;SDS011;43480;53.116;6.734;2023-04-25T08:26:59;10.88;;;2.40;;
57651;SDS011;43480;53.116;6.734;2023-04-25T08:29:25;10.10;;;1.80;;
57651;SDS011;43480;53.116;6.734;2023-04-25T08:31:51;6.10;;;1.40;;
57651;SDS011;43480;53.116;6.734;2023-04-25T08:34:18;6.28;;;0.95;;
57651;SDS011;43480;53.116;6.734;2023-04-25T08:36:45;4.13;;;1.10;;
57651;SDS011;43480;53.116;6.734;2023-04-25T08:39:10;2.70;;;0.90;;
57651;SDS011;43480;53.116;6.734;2023-04-25T08:41:37;5.28;;;1.98;;
57651;SDS011;43480;53.116;6.734;2023-04-25T08:44:02;3.38;;;0.90;;
57651;SDS011;43480;53.116;6.734;2023-04-25T08:46:29;5.32;;;1.10;;
57651;SDS011;43480;53.116;6.734;2023-04-25T08:49:00;2.97;;;1.00;;
57651;SDS011;43480;53.116;6.734;2023-04-25T08:51:27;4.88;;;1.38;;
57651;SDS011;43480;53.116;6.734;2023-04-25T08:53:56;5.18;;;1.10;;
57651;SDS011;43480;53.116;6.734;2023-04-25T08:56:37;4.72;;;1.30;;
57651;SDS011;43480;53.116;6.734;2023-04-25T08:59:05;3.17;;;0.93;;
57651;SDS011;43480;53.116;6.734;2023-04-25T09:01:33;3.00;;;1.20;;
57651;SDS011;43480;53.116;6.734;2023-04-25T09:04:00;5.22;;;1.40;;
57651;SDS011;43480;53.116;6.734;2023-04-25T09:06:27;5.63;;;1.00;;
57651;SDS011;43480;53.116;6.734;2023-04-25T09:09:00;7.32;;;1.55;;
57651;SDS011;43480;53.116;6.734;2023-04-25T09:11:30;6.50;;;1.00;;
57651;SDS011;43480;53.116;6.734;2023-04-25T09:14:20;6.03;;;1.25;;
57651;SDS011;43480;53.116;6.734;2023-04-25T09:17:08;5.10;;;1.08;;
57651;SDS011;43480;53.116;6.734;2023-04-25T09:19:34;7.78;;;2.30;;
57651;SDS011;43480;53.116;6.734;2023-04-25T09:22:01;9.35;;;1.60;;
57651;SDS011;43480;53.116;6.734;2023-04-25T09:24:39;5.57;;;1.23;;
57651;SDS011;43480;53.116;6.734;2023-04-25T09:27:10;6.75;;;1.70;;
57651;SDS011;43480;53.116;6.734;2023-04-25T09:29:40;9.27;;;1.50;;
57651;SDS011;43480;53.116;6.734;2023-04-25T09:34:44;5.60;;;1.50;;
57651;SDS011;43480;53.116;6.734;2023-04-25T09:37:16;8.88;;;1.95;;
57651;SDS011;43480;53.116;6.734;2023-04-25T09:39:44;7.60;;;1.65;;
57651;SDS011;43480;53.116;6.734;2023-04-25T09:42:12;6.22;;;1.45;;
57651;SDS011;43480;53.116;6.734;2023-04-25T09:44:43;6.78;;;1.55;;
57651;SDS011;43480;53.116;6.734;2023-04-25T09:47:11;8.23;;;1.90;;
57651;SDS011;43480;53.116;6.734;2023-04-25T09:49:41;10.65;;;2.33;;
57651;SDS011;43480;53.116;6.734;2023-04-25T09:52:07;9.18;;;2.58;;
57651;SDS011;43480;53.116;6.734;2023-04-25T09:54:34;4.93;;;1.60;;
57651;SDS011;43480;53.116;6.734;2023-04-25T09:57:02;9.48;;;2.33;;
57651;SDS011;43480;53.116;6.734;2023-04-25T09:59:38;4.72;;;1.67;;
57651;SDS011;43480;53.116;6.734;2023-04-25T10:02:07;8.00;;;2.17;;
57651;SDS011;43480;53.116;6.734;2023-04-25T10:04:34;6.97;;;1.83;;
57651;SDS011;43480;53.116;6.734;2023-04-25T10:07:02;9.70;;;2.33;;
57651;SDS011;43480;53.116;6.734;2023-04-25T10:09:30;7.03;;;1.67;;
57651;SDS011;43480;53.116;6.734;2023-04-25T10:11:59;12.65;;;1.95;;
57651;SDS011;43480;53.116;6.734;2023-04-25T10:14:25;4.85;;;1.40;;
57651;SDS011;43480;53.116;6.734;2023-04-25T10:16:51;8.15;;;1.92;;
57651;SDS011;43480;53.116;6.734;2023-04-25T10:19:19;10.10;;;2.30;;
57651;SDS011;43480;53.116;6.734;2023-04-25T10:21:54;7.30;;;1.98;;
57651;SDS011;43480;53.116;6.734;2023-04-25T10:24:29;8.45;;;2.10;;
57651;SDS011;43480;53.116;6.734;2023-04-25T10:26:55;14.60;;;2.20;;
57651;SDS011;43480;53.116;6.734;2023-04-25T10:29:23;9.23;;;2.20;;
57651;SDS011;43480;53.116;6.734;2023-04-25T10:31:50;13.88;;;2.25;;
57651;SDS011;43480;53.116;6.734;2023-04-25T10:34:16;4.85;;;1.50;;
57651;SDS011;43480;53.116;6.734;2023-04-25T10:36:42;6.25;;;1.40;;
57651;SDS011;43480;53.116;6.734;2023-04-25T10:39:08;8.25;;;2.28;;
57651;SDS011;43480;53.116;6.734;2023-04-25T10:41:46;6.80;;;2.25;;
57651;SDS011;43480;53.116;6.734;2023-04-25T10:44:17;6.25;;;1.60;;
57651;SDS011;43480;53.116;6.734;2023-04-25T10:46:44;6.68;;;2.00;;
57651;SDS011;43480;53.116;6.734;2023-04-25T10:49:10;8.98;;;1.77;;
57651;SDS011;43480;53.116;6.734;2023-04-25T10:51:57;5.55;;;1.58;;
57651;SDS011;43480;53.116;6.734;2023-04-25T10:54:55;9.25;;;2.05;;
57651;SDS011;43480;53.116;6.734;2023-04-25T10:57:28;5.57;;;1.40;;
57651;SDS011;43480;53.116;6.734;2023-04-25T10:59:57;5.43;;;1.30;;
57651;SDS011;43480;53.116;6.734;2023-04-25T11:02:30;10.05;;;2.10;;
57651;SDS011;43480;53.116;6.734;2023-04-25T11:04:56;8.95;;;2.42;;
57651;SDS011;43480;53.116;6.734;2023-04-25T11:07:38;11.63;;;1.83;;
57651;SDS011;43480;53.116;6.734;2023-04-25T11:10:15;7.28;;;1.65;;
57651;SDS011;43480;53.116;6.734;2023-04-25T11:12:41;6.65;;;1.58;;
57651;SDS011;43480;53.116;6.734;2023-04-25T11:15:07;6.40;;;1.70;;
57651;SDS011;43480;53.116;6.734;2023-04-25T11:17:33;4.85;;;1.75;;
57651;SDS011;43480;53.116;6.734;2023-04-25T11:19:59;7.50;;;2.72;;
57651;SDS011;43480;53.116;6.734;2023-04-25T11:22:26;6.50;;;1.60;;
57651;SDS011;43480;53.116;6.734;2023-04-25T11:24:53;8.32;;;1.65;;
57651;SDS011;43480;53.116;6.734;2023-04-25T11:27:19;5.95;;;2.60;;
57651;SDS011;43480;53.116;6.734;2023-04-25T11:29:46;5.88;;;1.85;;
57651;SDS011;43480;53.116;6.734;2023-04-25T11:32:14;6.07;;;1.50;;
57651;SDS011;43480;53.116;6.734;2023-04-25T11:34:42;4.80;;;1.38;;
57651;SDS011;43480;53.116;6.734;2023-04-25T11:37:09;8.85;;;1.92;;
57651;SDS011;43480;53.116;6.734;2023-04-25T11:39:36;6.60;;;1.27;;
57651;SDS011;43480;53.116;6.734;2023-04-25T11:42:02;16.15;;;3.92;;
57651;SDS011;43480;53.116;6.734;2023-04-25T11:44:29;6.70;;;2.17;;
57651;SDS011;43480;53.116;6.734;2023-04-25T11:46:55;6.97;;;1.50;;
57651;SDS011;43480;53.116;6.734;2023-04-25T11:49:21;8.98;;;1.67;;
57651;SDS011;43480;53.116;6.734;2023-04-25T11:51:47;9.82;;;1.95;;
57651;SDS011;43480;53.116;6.734;2023-04-25T11:54:13;8.48;;;1.70;;
57651;SDS011;43480;53.116;6.734;2023-04-25T11:56:43;6.72;;;1.80;;
57651;SDS011;43480;53.116;6.734;2023-04-25T11:59:09;9.43;;;1.75;;
57651;SDS011;43480;53.116;6.734;2023-04-25T12:01:36;7.97;;;1.75;;
57651;SDS011;43480;53.116;6.734;2023-04-25T12:04:16;11.15;;;1.83;;
57651;SDS011;43480;53.116;6.734;2023-04-25T12:06:51;9.60;;;1.77;;
57651;SDS011;43480;53.116;6.734;2023-04-25T12:09:18;8.55;;;2.42;;
57651;SDS011;43480;53.116;6.734;2023-04-25T12:11:53;6.75;;;1.58;;
57651;SDS011;43480;53.116;6.734;2023-04-25T12:14:21;8.20;;;1.30;;
57651;SDS011;43480;53.116;6.734;2023-04-25T12:16:49;8.75;;;2.17;;
57651;SDS011;43480;53.116;6.734;2023-04-25T12:19:16;9.30;;;1.98;;
57651;SDS011;43480;53.116;6.734;2023-04-25T12:21:43;6.28;;;1.50;;
57651;SDS011;43480;53.116;6.734;2023-04-25T12:24:13;6.28;;;1.55;;
57651;SDS011;43480;53.116;6.734;2023-04-25T12:26:47;11.55;;;1.52;;
57651;SDS011;43480;53.116;6.734;2023-04-25T12:29:16;6.10;;;1.45;;
57651;SDS011;43480;53.116;6.734;2023-04-25T12:31:42;9.13;;;1.67;;
57651;SDS011;43480;53.116;6.734;2023-04-25T12:34:08;8.32;;;1.80;;
57651;SDS011;43480;53.116;6.734;2023-04-25T12:36:34;8.93;;;1.98;;
57651;SDS011;43480;53.116;6.734;2023-04-25T12:39:00;7.18;;;1.52;;
57651;SDS011;43480;53.116;6.734;2023-04-25T12:41:29;8.45;;;1.48;;
57651;SDS011;43480;53.116;6.734;2023-04-25T12:43:55;8.52;;;1.55;;
57651;SDS011;43480;53.116;6.734;2023-04-25T12:46:21;8.00;;;1.75;;
57651;SDS011;43480;53.116;6.734;2023-04-25T12:48:47;10.32;;;1.40;;
57651;SDS011;43480;53.116;6.734;2023-04-25T12:51:13;11.90;;;3.30;;
57651;SDS011;43480;53.116;6.734;2023-04-25T12:53:39;7.75;;;1.60;;
57651;SDS011;43480;53.116;6.734;2023-04-25T12:56:06;8.80;;;1.98;;
57651;SDS011;43480;53.116;6.734;2023-04-25T12:58:32;5.90;;;1.50;;
57651;SDS011;43480;53.116;6.734;2023-04-25T13:00:58;7.72;;;1.40;;
57651;SDS011;43480;53.116;6.734;2023-04-25T13:03:24;10.50;;;2.10;;
57651;SDS011;43480;53.116;6.734;2023-04-25T13:05:50;10.25;;;2.53;;
57651;SDS011;43480;53.116;6.734;2023-04-25T13:08:18;9.70;;;1.58;;
57651;SDS011;43480;53.116;6.734;2023-04-25T13:10:44;7.22;;;1.65;;
57651;SDS011;43480;53.116;6.734;2023-04-25T13:13:09;7.70;;;1.35;;
57651;SDS011;43480;53.116;6.734;2023-04-25T13:15:35;8.50;;;1.33;;
57651;SDS011;43480;53.116;6.734;2023-04-25T13:18:02;5.30;;;1.30;;
57651;SDS011;43480;53.116;6.734;2023-04-25T13:20:29;6.32;;;1.67;;
57651;SDS011;43480;53.116;6.734;2023-04-25T13:22:54;5.30;;;1.27;;
57651;SDS011;43480;53.116;6.734;2023-04-25T13:25:20;5.20;;;1.02;;
57651;SDS011;43480;53.116;6.734;2023-04-25T13:27:47;9.63;;;1.60;;
57651;SDS011;43480;53.116;6.734;2023-04-25T13:30:12;4.72;;;1.30;;
57651;SDS011;43480;53.116;6.734;2023-04-25T13:32:38;7.82;;;1.98;;
57651;SDS011;43480;53.116;6.734;2023-04-25T13:35:06;9.50;;;1.92;;
57651;SDS011;43480;53.116;6.734;2023-04-25T13:37:35;5.97;;;1.58;;
57651;SDS011;43480;53.116;6.734;2023-04-25T13:40:02;9.90;;;1.92;;
57651;SDS011;43480;53.116;6.734;2023-04-25T13:42:30;9.30;;;2.05;;
57651;SDS011;43480;53.116;6.734;2023-04-25T13:44:56;9.20;;;1.90;;
57651;SDS011;43480;53.116;6.734;2023-04-25T13:47:22;10.48;;;2.40;;
57651;SDS011;43480;53.116;6.734;2023-04-25T13:49:48;8.48;;;2.33;;
57651;SDS011;43480;53.116;6.734;2023-04-25T13:52:14;8.68;;;2.05;;
57651;SDS011;43480;53.116;6.734;2023-04-25T13:54:40;10.07;;;1.98;;
57651;SDS011;43480;53.116;6.734;2023-04-25T13:57:05;11.98;;;2.28;;
57651;SDS011;43480;53.116;6.734;2023-04-25T13:59:31;10.07;;;2.70;;
57651;SDS011;43480;53.116;6.734;2023-04-25T14:01:57;9.60;;;2.50;;
57651;SDS011;43480;53.116;6.734;2023-04-25T14:04:23;12.35;;;3.03;;
57651;SDS011;43480;53.116;6.734;2023-04-25T14:06:50;6.25;;;1.70;;
57651;SDS011;43480;53.116;6.734;2023-04-25T14:09:16;6.47;;;2.13;;
57651;SDS011;43480;53.116;6.734;2023-04-25T14:11:42;7.10;;;1.80;;
57651;SDS011;43480;53.116;6.734;2023-04-25T14:14:07;8.18;;;1.55;;
57651;SDS011;43480;53.116;6.734;2023-04-25T14:16:34;6.13;;;1.40;;
57651;SDS011;43480;53.116;6.734;2023-04-25T14:19:00;9.27;;;1.65;;
57651;SDS011;43480;53.116;6.734;2023-04-25T14:21:26;9.57;;;1.92;;
57651;SDS011;43480;53.116;6.734;2023-04-25T14:23:53;9.18;;;1.58;;
57651;SDS011;43480;53.116;6.734;2023-04-25T14:26:19;8.93;;;1.90;;
57651;SDS011;43480;53.116;6.734;2023-04-25T14:28:44;6.82;;;2.03;;
57651;SDS011;43480;53.116;6.734;2023-04-25T14:31:10;8.80;;;2.15;;
57651;SDS011;43480;53.116;6.734;2023-04-25T14:33:36;9.13;;;1.98;;
57651;SDS011;43480;53.116;6.734;2023-04-25T14:36:04;7.75;;;2.00;;
57651;SDS011;43480;53.116;6.734;2023-04-25T14:38:30;11.98;;;2.42;;
57651;SDS011;43480;53.116;6.734;2023-04-25T14:40:56;7.57;;;2.33;;